Estación Meteorológica Peña el Pijo (Robertgarden) [ 12/09/19 16:58:17 CET ]

Fecha Hora Presion(HPa) Temp (°C) Humedad % Rocio (°C) Viento ( m/s) Direccion Lluvia 1Hora(mm) Lluvia 24H(mm) LLuvia Total(mm)
2019-Sep-23 01:01:46 1011.300 12.6 84 9.9       0.51 490.25
2019-Sep-23 02:01:54 1011.100 11.9 85 9.4       0.51 490.25
2019-Sep-23 03:01:40 1011.300 11.2 85 8.8       0.51 490.25
2019-Sep-23 04:05:14 1011.300 10.2 85 7.8       0.51 490.25
2019-Sep-23 05:01:18 1010.900 9.4 87 7.3       0.51 490.25
2019-Sep-23 06:01:49 1011.500 8.9 88 7.0       0.51 490.25
2019-Sep-23 07:01:53 1011.900 8.8 88 6.9       0.51 490.25
2019-Sep-23 08:01:43 1012.500 7.6 88 5.8       0.51 490.25
2019-Sep-23 09:01:32 1012.800 8.4 89 6.7       0.51 490.25
2019-Sep-23 10:01:46 1013.200 13.1 86 10.8         490.25
2019-Sep-23 11:01:45 1013.400 17.1 69 11.4         490.25
2019-Sep-23 12:01:51 1013.100 21.2 55 11.8         490.25
2019-Sep-23 13:01:46 1012.500 24.7 44 11.6         490.25
2019-Sep-23 14:01:47 1012.100 26.9 41 12.5 0.4 WSW     490.25
2019-Sep-23 15:02:01 1011.700 27.9 39 12.7         490.25
2019-Sep-23 16:01:32 1011.500 28.4 38 12.7         490.25
2019-Sep-23 17:01:47 1011.500 27.7 40 12.9         490.25
2019-Sep-23 18:01:38 1011.700 25.3 44 12.1         490.25
2019-Sep-23 19:01:46 1012.300 22.7 47 10.7         490.25
2019-Sep-23 20:01:37 1012.500 19.9 54 10.3         490.25
2019-Sep-23 21:01:51 1013.300 16.7 67 10.5         490.25
2019-Sep-23 22:01:50 1013.800 14.9 72 9.9         490.25
2019-Sep-23 23:01:53 1014.100 13.6 76 9.4         490.25

Temperatura Máxima:28°    Temperatura Mínima:
Presión Máxima:1014.100 Hpa    Presión Mínima:1010.900 Hpa


Volver